Time,TemperatureF,DewpointF,PressureIn,WindDirection,WindDirectionDegrees,WindSpeedMPH,WindSpeedGustMPH,Humidity,HourlyPrecipIn,Conditions,Clouds,dailyrainin,SoftwareType,DateUTC
2013-02-24 00:00:00,32.2,29.1,29.67,North,0,0.0,0.0,88,0.00,,,0.00,WUHU216HW,2013-02-24 05:00:00,
2013-02-24 00:01:00,32.2,29.1,29.67,North,0,0.0,0.0,88,0.00,,,0.00,WUHU216HW,2013-02-24 05:01:00,
2013-02-24 00:06:00,32.2,29.1,29.67,North,0,0.0,0.0,88,0.00,,,0.00,WUHU216HW,2013-02-24 05:06:00,
2013-02-24 00:11:00,32.2,29.1,29.67,North,0,0.0,0.0,88,0.00,,,0.00,WUHU216HW,2013-02-24 05:11:00,
2013-02-24 00:16:00,32.2,29.1,29.66,North,0,0.0,0.0,88,0.00,,,0.00,WUHU216HW,2013-02-24 05:16:00,
2013-02-24 00:21:00,32.2,29.1,29.66,North,0,0.0,0.0,88,0.00,,,0.00,WUHU216HW,2013-02-24 05:21:00,
2013-02-24 00:26:00,32.0,29.0,29.66,North,0,0.0,0.0,88,0.00,,,0.00,WUHU216HW,2013-02-24 05:26:00,
2013-02-24 00:31:00,32.0,29.0,29.66,North,0,0.0,0.0,88,0.00,,,0.00,WUHU216HW,2013-02-24 05:31:00,
2013-02-24 00:36:00,32.0,29.0,29.66,North,0,0.0,0.0,88,0.00,,,0.00,WUHU216HW,2013-02-24 05:36:00,
2013-02-24 00:41:00,32.0,29.0,29.66,North,0,0.0,0.0,88,0.00,,,0.00,WUHU216HW,2013-02-24 05:41:00,
2013-02-24 01:00:00,32.0,29.0,29.66,North,0,0.0,0.0,88,0.00,,,0.00,WUHU216HW,2013-02-24 06:00:00,
2013-02-24 01:05:00,32.0,29.0,29.65,North,0,0.0,0.0,88,0.00,,,0.00,WUHU216HW,2013-02-24 06:05:00,
2013-02-24 01:10:00,32.0,29.3,29.65,North,0,0.0,0.0,89,0.00,,,0.00,WUHU216HW,2013-02-24 06:10:00,
2013-02-24 01:15:00,32.0,29.0,29.64,North,0,0.0,0.0,88,0.00,,,0.00,WUHU216HW,2013-02-24 06:15:00,
2013-02-24 01:20:00,32.2,29.4,29.64,North,0,0.0,0.0,89,0.00,,,0.00,WUHU216HW,2013-02-24 06:20:00,
2013-02-24 01:25:00,32.2,29.1,29.64,North,0,0.0,0.0,88,0.00,,,0.00,WUHU216HW,2013-02-24 06:25:00,
2013-02-24 01:30:00,32.0,29.0,29.64,North,0,0.0,0.0,88,0.00,,,0.00,WUHU216HW,2013-02-24 06:30:00,
2013-02-24 01:35:00,32.2,29.1,29.64,North,0,0.0,0.0,88,0.00,,,0.00,WUHU216HW,2013-02-24 06:35:00,
2013-02-24 01:40:00,32.2,29.1,29.64,North,0,0.0,0.0,88,0.00,,,0.00,WUHU216HW,2013-02-24 06:40:00,
2013-02-24 02:00:00,32.2,29.4,29.62,North,0,0.0,0.0,89,0.00,,,0.00,WUHU216HW,2013-02-24 07:00:00,
2013-02-24 02:05:00,32.0,29.3,29.62,North,0,0.0,0.0,89,0.00,,,0.00,WUHU216HW,2013-02-24 07:05:00,
2013-02-24 02:10:00,32.0,29.3,29.62,North,0,0.0,0.0,89,0.00,,,0.00,WUHU216HW,2013-02-24 07:10:00,
2013-02-24 02:15:00,32.0,29.3,29.61,North,0,0.0,0.0,89,0.00,,,0.00,WUHU216HW,2013-02-24 07:15:00,
2013-02-24 02:20:00,32.0,29.3,29.61,North,0,0.0,0.0,89,0.00,,,0.00,WUHU216HW,2013-02-24 07:20:00,
2013-02-24 02:25:00,32.0,29.3,29.61,North,0,0.0,0.0,89,0.00,,,0.00,WUHU216HW,2013-02-24 07:25:00,
2013-02-24 02:30:00,32.2,29.4,29.61,North,0,0.0,0.0,89,0.00,,,0.00,WUHU216HW,2013-02-24 07:30:00,
2013-02-24 02:35:00,32.0,29.3,29.60,North,0,0.0,0.0,89,0.00,,,0.00,WUHU216HW,2013-02-24 07:35:00,
2013-02-24 02:40:00,32.0,29.3,29.60,North,0,0.0,0.0,89,0.00,,,0.00,WUHU216HW,2013-02-24 07:40:00,
2013-02-24 03:00:00,32.2,29.4,29.59,North,0,0.0,0.0,89,0.00,,,0.00,WUHU216HW,2013-02-24 08:00:00,
2013-02-24 03:05:00,32.2,29.4,29.60,North,0,0.0,0.0,89,0.00,,,0.00,WUHU216HW,2013-02-24 08:05:00,
2013-02-24 03:10:00,32.2,29.4,29.60,North,0,0.0,0.0,89,0.00,,,0.00,WUHU216HW,2013-02-24 08:10:00,
2013-02-24 03:15:00,32.2,29.4,29.60,North,0,0.0,0.0,89,0.00,,,0.00,WUHU216HW,2013-02-24 08:15:00,
2013-02-24 03:20:00,32.4,29.5,29.60,North,0,0.0,0.0,89,0.00,,,0.00,WUHU216HW,2013-02-24 08:20:00,
2013-02-24 03:25:00,32.4,29.5,29.60,North,0,0.0,0.0,89,0.00,,,0.00,WUHU216HW,2013-02-24 08:25:00,
2013-02-24 03:30:00,32.4,29.5,29.60,North,0,0.0,0.0,89,0.00,,,0.00,WUHU216HW,2013-02-24 08:30:00,
2013-02-24 03:35:00,32.4,29.5,29.60,North,0,0.0,0.0,89,0.00,,,0.00,WUHU216HW,2013-02-24 08:35:00,
2013-02-24 03:40:00,32.4,29.5,29.60,North,0,0.0,0.0,89,0.00,,,0.00,WUHU216HW,2013-02-24 08:40:00,
2013-02-24 04:00:00,32.4,29.5,29.59,North,0,0.0,0.0,89,0.00,,,0.00,WUHU216HW,2013-02-24 09:00:00,
2013-02-24 04:05:00,32.4,29.5,29.59,North,0,0.0,0.0,89,0.00,,,0.00,WUHU216HW,2013-02-24 09:05:00,
2013-02-24 04:10:00,32.4,29.5,29.58,North,0,0.0,0.0,89,0.00,,,0.00,WUHU216HW,2013-02-24 09:10:00,
2013-02-24 04:15:00,32.4,29.5,29.58,North,0,0.0,0.0,89,0.00,,,0.00,WUHU216HW,2013-02-24 09:15:00,
2013-02-24 04:20:00,32.4,29.5,29.58,North,0,0.0,0.0,89,0.00,,,0.00,WUHU216HW,2013-02-24 09:20:00,
2013-02-24 04:25:00,32.4,29.5,29.58,North,0,0.0,0.0,89,0.00,,,0.00,WUHU216HW,2013-02-24 09:25:00,
2013-02-24 04:30:00,32.4,29.5,29.58,North,0,0.0,0.0,89,0.00,,,0.00,WUHU216HW,2013-02-24 09:30:00,
2013-02-24 04:35:00,32.4,29.5,29.58,North,0,0.0,0.0,89,0.00,,,0.00,WUHU216HW,2013-02-24 09:35:00,
2013-02-24 04:40:00,32.4,29.5,29.58,North,0,0.0,0.0,89,0.00,,,0.00,WUHU216HW,2013-02-24 09:40:00,
2013-02-24 05:00:00,32.6,29.7,29.58,North,0,0.0,0.0,89,0.00,,,0.00,WUHU216HW,2013-02-24 10:00:00,
2013-02-24 05:05:00,32.4,29.5,29.58,North,0,0.0,0.0,89,0.00,,,0.00,WUHU216HW,2013-02-24 10:05:00,
2013-02-24 05:10:00,32.6,29.7,29.59,North,0,0.0,0.0,89,0.00,,,0.00,WUHU216HW,2013-02-24 10:10:00,
2013-02-24 05:15:00,32.6,29.7,29.59,North,0,0.0,0.0,89,0.00,,,0.00,WUHU216HW,2013-02-24 10:15:00,
2013-02-24 05:20:00,32.6,29.7,29.59,North,0,0.0,0.0,89,0.00,,,0.00,WUHU216HW,2013-02-24 10:20:00,
2013-02-24 05:25:00,32.6,29.7,29.59,North,0,0.0,0.0,89,0.00,,,0.00,WUHU216HW,2013-02-24 10:25:00,
2013-02-24 05:30:00,32.6,29.7,29.59,North,0,0.0,0.0,89,0.00,,,0.00,WUHU216HW,2013-02-24 10:30:00,
2013-02-24 05:35:00,32.6,29.7,29.59,North,0,0.0,0.0,89,0.00,,,0.00,WUHU216HW,2013-02-24 10:35:00,
2013-02-24 05:40:00,32.6,29.7,29.59,North,0,0.0,0.0,89,0.00,,,0.00,WUHU216HW,2013-02-24 10:40:00,
2013-02-24 06:00:00,32.6,29.7,29.57,North,0,0.0,0.0,89,0.00,,,0.00,WUHU216HW,2013-02-24 11:00:00,
2013-02-24 06:05:00,32.6,29.7,29.58,North,0,0.0,0.0,89,0.00,,,0.00,WUHU216HW,2013-02-24 11:05:00,
2013-02-24 06:10:00,32.6,29.7,29.58,North,0,0.0,0.0,89,0.00,,,0.00,WUHU216HW,2013-02-24 11:10:00,
2013-02-24 06:15:00,32.6,29.7,29.59,North,0,0.0,0.0,89,0.00,,,0.00,WUHU216HW,2013-02-24 11:15:00,
2013-02-24 06:20:00,32.6,29.7,29.59,North,0,0.0,0.0,89,0.00,,,0.00,WUHU216HW,2013-02-24 11:20:00,
2013-02-24 06:25:00,32.4,29.5,29.58,North,0,0.0,0.0,89,0.00,,,0.00,WUHU216HW,2013-02-24 11:25:00,
2013-02-24 06:30:00,32.6,29.7,29.58,North,0,0.0,0.0,89,0.00,,,0.00,WUHU216HW,2013-02-24 11:30:00,
2013-02-24 07:00:00,32.6,30.0,29.57,North,0,0.0,0.0,90,0.00,,,0.00,WUHU216HW,2013-02-24 12:00:00,
2013-02-24 07:05:00,32.6,30.0,29.56,North,0,0.0,0.0,90,0.00,,,0.00,WUHU216HW,2013-02-24 12:05:00,
2013-02-24 07:10:00,32.6,30.0,29.57,North,0,0.0,0.0,90,0.00,,,0.00,WUHU216HW,2013-02-24 12:10:00,
2013-02-24 07:15:00,32.6,30.0,29.56,North,0,0.0,0.0,90,0.00,,,0.00,WUHU216HW,2013-02-24 12:15:00,
2013-02-24 07:20:00,32.8,30.2,29.56,North,0,0.0,0.0,90,0.00,,,0.00,WUHU216HW,2013-02-24 12:20:00,
2013-02-24 07:26:00,32.8,30.2,29.57,North,0,0.0,0.0,90,0.00,,,0.00,WUHU216HW,2013-02-24 12:26:00,
2013-02-24 07:31:00,32.8,30.2,29.56,North,0,0.0,0.0,90,0.00,,,0.00,WUHU216HW,2013-02-24 12:31:00,
2013-02-24 07:36:00,32.8,30.2,29.56,North,0,0.0,0.0,90,0.00,,,0.00,WUHU216HW,2013-02-24 12:36:00,
2013-02-24 07:41:00,32.8,30.2,29.56,North,0,0.0,0.0,90,0.00,,,0.00,WUHU216HW,2013-02-24 12:41:00,
2013-02-24 08:00:00,33.1,30.5,29.57,North,0,0.0,0.0,90,0.00,,,0.00,WUHU216HW,2013-02-24 13:00:00,
2013-02-24 08:05:00,33.1,30.5,29.56,North,0,0.0,0.0,90,0.00,,,0.00,WUHU216HW,2013-02-24 13:05:00,
2013-02-24 08:10:00,33.1,30.3,29.57,North,0,0.0,0.0,89,0.00,,,0.00,WUHU216HW,2013-02-24 13:10:00,
2013-02-24 08:15:00,33.3,30.3,29.56,North,0,0.0,0.0,89,0.00,,,0.00,WUHU216HW,2013-02-24 13:15:00,
2013-02-24 08:20:00,33.3,30.7,29.56,North,0,0.0,0.0,90,0.00,,,0.00,WUHU216HW,2013-02-24 13:20:00,
2013-02-24 08:26:00,33.5,30.8,29.56,North,0,0.0,0.0,90,0.00,,,0.00,WUHU216HW,2013-02-24 13:26:00,
2013-02-24 08:31:00,33.5,30.8,29.56,North,0,0.0,0.0,90,0.00,,,0.00,WUHU216HW,2013-02-24 13:31:00,
2013-02-24 08:36:00,33.5,30.8,29.56,North,0,0.0,0.0,90,0.00,,,0.00,WUHU216HW,2013-02-24 13:36:00,
2013-02-24 09:00:00,34.4,31.4,29.56,North,0,0.0,0.0,89,0.00,,,0.00,WUHU216HW,2013-02-24 14:00:00,
2013-02-24 09:05:00,34.4,31.4,29.56,North,0,0.0,0.0,89,0.00,,,0.00,WUHU216HW,2013-02-24 14:05:00,
2013-02-24 09:10:00,34.6,31.6,29.55,North,0,0.0,0.0,89,0.00,,,0.00,WUHU216HW,2013-02-24 14:10:00,
2013-02-24 09:15:00,34.9,32.0,29.55,North,0,0.0,0.0,89,0.00,,,0.00,WUHU216HW,2013-02-24 14:15:00,
2013-02-24 09:20:00,35.1,32.1,29.55,North,0,0.0,0.0,89,0.01,,,0.01,WUHU216HW,2013-02-24 14:20:00,
2013-02-24 09:25:00,35.1,32.1,29.55,North,0,0.0,0.0,89,0.01,,,0.01,WUHU216HW,2013-02-24 14:25:00,
2013-02-24 09:30:00,35.3,32.3,29.54,North,0,0.0,0.0,89,0.01,,,0.01,WUHU216HW,2013-02-24 14:30:00,
2013-02-24 09:35:00,35.3,32.3,29.55,North,0,0.0,0.0,89,0.01,,,0.01,WUHU216HW,2013-02-24 14:35:00,
2013-02-24 09:40:00,35.3,32.3,29.55,North,0,0.0,0.0,89,0.01,,,0.01,WUHU216HW,2013-02-24 14:40:00,
2013-02-24 10:00:00,35.6,32.4,29.55,North,0,0.0,0.0,88,0.03,,,0.03,WUHU216HW,2013-02-24 15:00:00,
2013-02-24 10:05:00,35.8,32.6,29.55,North,0,0.0,0.0,88,0.03,,,0.03,WUHU216HW,2013-02-24 15:05:00,
2013-02-24 10:10:00,35.6,32.0,29.55,North,0,0.0,0.0,87,0.04,,,0.03,WUHU216HW,2013-02-24 15:10:00,
2013-02-24 10:15:00,35.6,32.0,29.55,North,0,0.0,0.0,87,0.03,,,0.03,WUHU216HW,2013-02-24 15:15:00,
2013-02-24 10:20:00,35.5,31.9,29.54,North,0,0.0,0.0,87,0.03,,,0.03,WUHU216HW,2013-02-24 15:20:00,
2013-02-24 10:25:00,35.5,31.9,29.54,North,0,0.0,0.0,87,0.03,,,0.03,WUHU216HW,2013-02-24 15:25:00,
2013-02-24 10:30:00,35.5,31.9,29.54,North,0,0.0,0.0,87,0.04,,,0.05,WUHU216HW,2013-02-24 15:30:00,
2013-02-24 10:35:00,35.6,32.0,29.54,North,0,0.0,0.0,87,0.03,,,0.05,WUHU216HW,2013-02-24 15:35:00,
2013-02-24 10:40:00,35.6,32.0,29.54,North,0,0.0,0.0,87,0.03,,,0.05,WUHU216HW,2013-02-24 15:40:00,
2013-02-24 11:00:00,35.6,32.0,29.54,North,0,0.0,0.0,87,0.03,,,0.06,WUHU216HW,2013-02-24 16:00:00,
2013-02-24 11:05:00,35.8,32.2,29.54,North,0,0.0,0.0,87,0.02,,,0.06,WUHU216HW,2013-02-24 16:05:00,
2013-02-24 11:10:00,35.8,32.2,29.54,North,0,0.0,0.0,87,0.02,,,0.06,WUHU216HW,2013-02-24 16:10:00,
2013-02-24 11:15:00,35.8,32.6,29.54,North,0,0.0,0.0,88,0.03,,,0.07,WUHU216HW,2013-02-24 16:15:00,
2013-02-24 11:20:00,35.8,32.6,29.54,North,0,0.0,0.0,88,0.03,,,0.07,WUHU216HW,2013-02-24 16:20:00,
2013-02-24 11:25:00,35.8,32.6,29.53,North,0,0.0,0.0,88,0.02,,,0.07,WUHU216HW,2013-02-24 16:25:00,
2013-02-24 11:30:00,36.0,32.8,29.53,North,0,0.0,0.0,88,0.02,,,0.07,WUHU216HW,2013-02-24 16:30:00,
2013-02-24 11:35:00,36.2,33.0,29.53,North,0,0.0,0.0,88,0.03,,,0.08,WUHU216HW,2013-02-24 16:35:00,
2013-02-24 11:40:00,36.2,33.0,29.53,North,0,0.0,0.0,88,0.03,,,0.08,WUHU216HW,2013-02-24 16:40:00,
2013-02-24 12:00:00,36.0,32.4,29.53,North,0,0.0,0.0,87,0.03,,,0.09,WUHU216HW,2013-02-24 17:00:00,
2013-02-24 12:05:00,36.2,32.6,29.53,North,0,0.0,0.0,87,0.04,,,0.09,WUHU216HW,2013-02-24 17:05:00,
2013-02-24 12:10:00,36.4,33.1,29.53,North,0,0.0,0.0,88,0.03,,,0.10,WUHU216HW,2013-02-24 17:10:00,
2013-02-24 12:15:00,36.4,32.8,29.53,North,0,0.0,0.0,87,0.03,,,0.10,WUHU216HW,2013-02-24 17:15:00,
2013-02-24 12:20:00,36.5,33.3,29.53,North,0,0.0,0.0,88,0.04,,,0.10,WUHU216HW,2013-02-24 17:20:00,
2013-02-24 12:25:00,36.7,33.1,29.52,North,0,0.0,0.0,87,0.04,,,0.11,WUHU216HW,2013-02-24 17:25:00,
2013-02-24 12:30:00,36.7,33.1,29.52,North,0,0.0,0.0,87,0.03,,,0.11,WUHU216HW,2013-02-24 17:30:00,
2013-02-24 12:35:00,36.7,33.1,29.52,North,0,0.0,0.0,87,0.03,,,0.11,WUHU216HW,2013-02-24 17:35:00,
2013-02-24 12:40:00,36.7,33.1,29.52,North,0,0.0,0.0,87,0.03,,,0.11,WUHU216HW,2013-02-24 17:40:00,
2013-02-24 13:00:00,37.3,33.7,29.51,North,0,0.0,0.0,87,0.03,,,0.12,WUHU216HW,2013-02-24 18:00:00,
2013-02-24 13:05:00,37.4,33.8,29.51,North,0,0.0,0.0,87,0.04,,,0.13,WUHU216HW,2013-02-24 18:05:00,
2013-02-24 13:10:00,37.8,34.2,29.51,North,0,0.0,0.0,87,0.03,,,0.13,WUHU216HW,2013-02-24 18:10:00,
2013-02-24 13:15:00,38.2,34.6,29.51,North,0,0.0,0.0,87,0.03,,,0.13,WUHU216HW,2013-02-24 18:15:00,
2013-02-24 13:20:00,38.5,34.9,29.51,North,0,0.0,0.0,87,0.02,,,0.13,WUHU216HW,2013-02-24 18:20:00,
2013-02-24 13:25:00,38.7,34.8,29.51,North,0,0.0,0.0,86,0.02,,,0.13,WUHU216HW,2013-02-24 18:25:00,
2013-02-24 13:30:00,38.7,34.8,29.51,North,0,0.0,0.0,86,0.02,,,0.13,WUHU216HW,2013-02-24 18:30:00,
2013-02-24 13:35:00,38.5,34.4,29.51,North,0,0.0,0.0,85,0.02,,,0.13,WUHU216HW,2013-02-24 18:35:00,
2013-02-24 13:40:00,38.5,34.4,29.51,North,0,0.0,0.0,85,0.02,,,0.13,WUHU216HW,2013-02-24 18:40:00,
2013-02-24 14:00:00,37.8,33.4,29.51,North,0,0.0,0.0,84,0.00,,,0.13,WUHU216HW,2013-02-24 19:00:00,
2013-02-24 14:05:00,37.8,33.7,29.51,North,0,0.0,0.0,85,0.00,,,0.13,WUHU216HW,2013-02-24 19:05:00,
2013-02-24 14:10:00,37.8,33.4,29.51,North,0,0.0,0.0,84,0.01,,,0.13,WUHU216HW,2013-02-24 19:10:00,
2013-02-24 14:15:00,37.8,33.4,29.51,North,0,0.0,0.0,84,0.01,,,0.14,WUHU216HW,2013-02-24 19:15:00,
2013-02-24 14:20:00,37.8,33.4,29.51,North,0,0.0,0.0,84,0.01,,,0.14,WUHU216HW,2013-02-24 19:20:00,
2013-02-24 14:25:00,37.8,33.4,29.51,North,0,0.0,0.0,84,0.01,,,0.14,WUHU216HW,2013-02-24 19:25:00,
2013-02-24 14:30:00,37.8,33.4,29.51,North,0,0.0,0.0,84,0.01,,,0.14,WUHU216HW,2013-02-24 19:30:00,
2013-02-24 14:35:00,37.6,33.2,29.51,North,0,0.0,0.0,84,0.01,,,0.14,WUHU216HW,2013-02-24 19:35:00,
2013-02-24 14:40:00,37.6,33.2,29.51,North,0,0.0,0.0,84,0.01,,,0.14,WUHU216HW,2013-02-24 19:40:00,
2013-02-24 15:00:00,37.4,33.3,29.51,North,0,0.0,0.0,85,0.01,,,0.14,WUHU216HW,2013-02-24 20:00:00,
2013-02-24 15:05:00,37.4,33.3,29.51,North,0,0.0,0.0,85,0.01,,,0.14,WUHU216HW,2013-02-24 20:05:00,
2013-02-24 15:10:00,37.4,33.3,29.51,North,0,0.0,0.0,85,0.00,,,0.14,WUHU216HW,2013-02-24 20:10:00,
2013-02-24 15:15:00,37.3,33.1,29.52,North,0,0.0,0.0,85,0.00,,,0.14,WUHU216HW,2013-02-24 20:15:00,
2013-02-24 15:22:00,37.3,33.1,29.51,North,0,0.0,0.0,85,0.00,,,0.14,WUHU216HW,2013-02-24 20:22:00,
2013-02-24 15:27:00,37.3,33.1,29.51,North,0,0.0,0.0,85,0.00,,,0.14,WUHU216HW,2013-02-24 20:27:00,
2013-02-24 15:32:00,37.3,33.1,29.51,North,0,0.0,0.0,85,0.00,,,0.14,WUHU216HW,2013-02-24 20:32:00,
2013-02-24 15:37:00,37.3,33.1,29.51,North,0,0.0,0.0,85,0.00,,,0.14,WUHU216HW,2013-02-24 20:37:00,
2013-02-24 15:42:00,37.3,33.1,29.51,North,0,0.0,0.0,85,0.00,,,0.14,WUHU216HW,2013-02-24 20:42:00,
2013-02-24 16:00:00,37.1,32.9,29.51,North,0,0.0,0.0,85,0.00,,,0.14,WUHU216HW,2013-02-24 21:00:00,
2013-02-24 16:05:00,37.1,32.9,29.51,North,0,0.0,0.0,85,0.00,,,0.14,WUHU216HW,2013-02-24 21:05:00,
2013-02-24 16:10:00,36.7,32.6,29.52,North,0,0.0,0.0,85,0.00,,,0.14,WUHU216HW,2013-02-24 21:10:00,
2013-02-24 16:15:00,36.7,32.6,29.52,North,0,0.0,0.0,85,0.00,,,0.14,WUHU216HW,2013-02-24 21:15:00,
2013-02-24 16:20:00,36.7,32.6,29.53,North,0,0.0,0.0,85,0.00,,,0.14,WUHU216HW,2013-02-24 21:20:00,
2013-02-24 16:25:00,36.7,32.6,29.53,North,0,0.0,0.0,85,0.00,,,0.14,WUHU216HW,2013-02-24 21:25:00,
2013-02-24 16:30:00,36.5,32.4,29.53,North,0,0.0,0.0,85,0.00,,,0.14,WUHU216HW,2013-02-24 21:30:00,
2013-02-24 16:35:00,36.4,32.2,29.53,North,0,0.0,0.0,85,0.00,,,0.14,WUHU216HW,2013-02-24 21:35:00,
2013-02-24 16:40:00,36.4,32.2,29.53,North,0,0.0,0.0,85,0.00,,,0.14,WUHU216HW,2013-02-24 21:40:00,
2013-02-24 17:00:00,35.6,31.5,29.53,North,0,0.0,0.0,85,0.01,,,0.15,WUHU216HW,2013-02-24 22:00:00,
2013-02-24 17:05:00,35.6,31.5,29.53,North,0,0.0,0.0,85,0.01,,,0.15,WUHU216HW,2013-02-24 22:05:00,
2013-02-24 17:10:00,35.5,31.3,29.54,North,0,0.0,0.0,85,0.01,,,0.15,WUHU216HW,2013-02-24 22:10:00,
2013-02-24 17:15:00,35.3,31.1,29.54,North,0,0.0,0.0,85,0.01,,,0.15,WUHU216HW,2013-02-24 22:15:00,
2013-02-24 17:20:00,35.1,31.0,29.54,North,0,0.0,0.0,85,0.01,,,0.15,WUHU216HW,2013-02-24 22:20:00,
2013-02-24 17:25:00,35.1,31.0,29.55,North,0,0.0,0.0,85,0.01,,,0.15,WUHU216HW,2013-02-24 22:25:00,
2013-02-24 17:30:00,34.9,30.8,29.55,North,0,0.0,0.0,85,0.01,,,0.15,WUHU216HW,2013-02-24 22:30:00,
2013-02-24 17:35:00,34.9,31.1,29.55,North,0,0.0,0.0,86,0.01,,,0.15,WUHU216HW,2013-02-24 22:35:00,
2013-02-24 17:40:00,34.9,31.1,29.55,North,0,0.0,0.0,86,0.01,,,0.15,WUHU216HW,2013-02-24 22:40:00,
2013-02-24 18:00:00,34.2,30.3,29.56,North,0,0.0,0.0,86,0.01,,,0.15,WUHU216HW,2013-02-24 23:00:00,
2013-02-24 18:05:00,34.2,30.3,29.56,North,0,0.0,0.0,86,0.01,,,0.16,WUHU216HW,2013-02-24 23:05:00,
2013-02-24 18:10:00,34.0,30.2,29.56,North,0,0.0,0.0,86,0.01,,,0.16,WUHU216HW,2013-02-24 23:10:00,
2013-02-24 18:15:00,34.0,30.2,29.56,North,0,0.0,0.0,86,0.01,,,0.16,WUHU216HW,2013-02-24 23:15:00,
2013-02-24 18:20:00,33.8,30.0,29.56,North,0,0.0,0.0,86,0.01,,,0.16,WUHU216HW,2013-02-24 23:20:00,
2013-02-24 18:25:00,33.8,30.0,29.57,North,0,0.0,0.0,86,0.01,,,0.16,WUHU216HW,2013-02-24 23:25:00,
2013-02-24 18:30:00,33.8,30.0,29.57,North,0,0.0,0.0,86,0.01,,,0.16,WUHU216HW,2013-02-24 23:30:00,
2013-02-24 18:35:00,33.7,29.8,29.57,North,0,0.0,0.0,86,0.00,,,0.16,WUHU216HW,2013-02-24 23:35:00,
2013-02-24 18:40:00,33.7,29.8,29.57,North,0,0.0,0.0,86,0.00,,,0.16,WUHU216HW,2013-02-24 23:40:00,
2013-02-24 19:00:00,33.5,30.0,29.58,North,0,0.0,0.0,87,0.00,,,0.16,WUHU216HW,2013-02-25 00:00:00,
2013-02-24 19:05:00,33.3,29.8,29.59,North,0,0.0,0.0,87,0.00,,,0.16,WUHU216HW,2013-02-25 00:05:00,
2013-02-24 19:10:00,33.3,29.8,29.59,North,0,0.0,0.0,87,0.00,,,0.16,WUHU216HW,2013-02-25 00:10:00,
2013-02-24 19:15:00,33.3,29.8,29.59,North,0,0.0,0.0,87,0.00,,,0.16,WUHU216HW,2013-02-25 00:15:00,
2013-02-24 19:20:00,33.3,29.8,29.59,North,0,0.0,0.0,87,0.00,,,0.16,WUHU216HW,2013-02-25 00:20:00,
2013-02-24 19:25:00,33.3,30.1,29.59,North,0,0.0,0.0,88,0.00,,,0.16,WUHU216HW,2013-02-25 00:25:00,
2013-02-24 19:30:00,33.1,29.9,29.59,North,0,0.0,0.0,88,0.00,,,0.16,WUHU216HW,2013-02-25 00:30:00,
2013-02-24 19:35:00,33.1,29.9,29.60,North,0,0.0,0.0,88,0.00,,,0.16,WUHU216HW,2013-02-25 00:35:00,
2013-02-24 19:40:00,33.1,29.9,29.60,North,0,0.0,0.0,88,0.00,,,0.16,WUHU216HW,2013-02-25 00:40:00,
2013-02-24 20:00:00,33.1,29.9,29.61,North,0,0.0,0.0,88,0.00,,,0.16,WUHU216HW,2013-02-25 01:00:00,
2013-02-24 20:05:00,32.9,29.8,29.61,North,0,0.0,0.0,88,0.00,,,0.16,WUHU216HW,2013-02-25 01:05:00,
2013-02-24 20:10:00,32.9,29.8,29.61,North,0,0.0,0.0,88,0.00,,,0.16,WUHU216HW,2013-02-25 01:10:00,
2013-02-24 20:15:00,32.9,29.8,29.61,North,0,0.0,0.0,88,0.00,,,0.16,WUHU216HW,2013-02-25 01:15:00,
2013-02-24 20:20:00,32.9,29.8,29.61,North,0,0.0,0.0,88,0.00,,,0.16,WUHU216HW,2013-02-25 01:20:00,
2013-02-24 20:25:00,32.9,29.8,29.61,North,0,0.0,0.0,88,0.00,,,0.16,WUHU216HW,2013-02-25 01:25:00,
2013-02-24 20:30:00,32.9,29.8,29.61,North,0,0.0,0.0,88,0.00,,,0.16,WUHU216HW,2013-02-25 01:30:00,
2013-02-24 20:35:00,32.8,29.6,29.61,North,0,0.0,0.0,88,0.00,,,0.16,WUHU216HW,2013-02-25 01:35:00,
2013-02-24 20:40:00,32.8,29.6,29.61,North,0,0.0,0.0,88,0.00,,,0.16,WUHU216HW,2013-02-25 01:40:00,
2013-02-24 21:00:00,32.8,29.9,29.62,North,0,0.0,0.0,89,0.00,,,0.16,WUHU216HW,2013-02-25 02:00:00,
2013-02-24 21:05:00,32.8,29.9,29.63,North,0,0.0,0.0,89,0.00,,,0.16,WUHU216HW,2013-02-25 02:05:00,
2013-02-24 21:10:00,32.9,30.1,29.63,North,0,0.0,0.0,89,0.00,,,0.16,WUHU216HW,2013-02-25 02:10:00,
2013-02-24 21:15:00,32.9,30.1,29.63,North,0,0.0,0.0,89,0.00,,,0.16,WUHU216HW,2013-02-25 02:15:00,
2013-02-24 21:20:00,32.9,30.1,29.63,North,0,0.0,0.0,89,0.00,,,0.16,WUHU216HW,2013-02-25 02:20:00,
2013-02-24 21:25:00,32.9,30.1,29.63,North,0,0.0,0.0,89,0.00,,,0.16,WUHU216HW,2013-02-25 02:25:00,
2013-02-24 21:30:00,32.9,30.1,29.63,North,0,0.0,0.0,89,0.00,,,0.16,WUHU216HW,2013-02-25 02:30:00,
2013-02-24 21:35:00,32.9,30.1,29.63,North,0,0.0,0.0,89,0.00,,,0.16,WUHU216HW,2013-02-25 02:35:00,
2013-02-24 21:40:00,32.9,30.1,29.63,North,0,0.0,0.0,89,0.00,,,0.16,WUHU216HW,2013-02-25 02:40:00,
2013-02-24 21:45:00,32.9,30.1,29.63,North,0,0.0,0.0,89,0.00,,,0.16,WUHU216HW,2013-02-25 02:45:00,
2013-02-24 21:51:00,32.9,30.1,29.64,North,0,0.0,0.0,89,0.00,,,0.16,WUHU216HW,2013-02-25 02:51:00,
2013-02-24 21:56:00,32.8,29.9,29.63,North,0,0.0,0.0,89,0.00,,,0.16,WUHU216HW,2013-02-25 02:56:00,
2013-02-24 22:01:00,32.8,29.9,29.64,North,0,0.0,0.0,89,0.00,,,0.16,WUHU216HW,2013-02-25 03:01:00,
2013-02-24 22:06:00,32.8,29.9,29.64,North,0,0.0,0.0,89,0.00,,,0.16,WUHU216HW,2013-02-25 03:06:00,
2013-02-24 22:11:00,32.8,29.9,29.64,North,0,0.0,0.0,89,0.00,,,0.16,WUHU216HW,2013-02-25 03:11:00,
2013-02-24 22:16:00,32.8,29.9,29.64,North,0,0.0,0.0,89,0.00,,,0.16,WUHU216HW,2013-02-25 03:16:00,
2013-02-24 22:21:00,32.8,29.9,29.64,North,0,0.0,0.0,89,0.00,,,0.16,WUHU216HW,2013-02-25 03:21:00,
2013-02-24 22:26:00,32.8,29.9,29.64,North,0,0.0,0.0,89,0.00,,,0.16,WUHU216HW,2013-02-25 03:26:00,
2013-02-24 22:31:00,32.8,29.9,29.64,North,0,0.0,0.0,89,0.00,,,0.16,WUHU216HW,2013-02-25 03:31:00,
2013-02-24 22:36:00,32.8,29.9,29.64,North,0,0.0,0.0,89,0.00,,,0.16,WUHU216HW,2013-02-25 03:36:00,
2013-02-24 22:41:00,32.8,29.9,29.64,North,0,0.0,0.0,89,0.00,,,0.16,WUHU216HW,2013-02-25 03:41:00,
2013-02-24 22:46:00,32.8,29.9,29.64,North,0,0.0,0.0,89,0.00,,,0.16,WUHU216HW,2013-02-25 03:46:00,
2013-02-24 22:51:00,32.8,29.9,29.64,North,0,0.0,0.0,89,0.00,,,0.16,WUHU216HW,2013-02-25 03:51:00,
2013-02-24 22:56:00,32.8,29.9,29.65,North,0,0.0,0.0,89,0.00,,,0.16,WUHU216HW,2013-02-25 03:56:00,
2013-02-24 23:01:00,32.8,29.9,29.65,North,0,0.0,0.0,89,0.00,,,0.16,WUHU216HW,2013-02-25 04:01:00,
2013-02-24 23:06:00,32.8,29.9,29.65,North,0,0.0,0.0,89,0.00,,,0.16,WUHU216HW,2013-02-25 04:06:00,
2013-02-24 23:11:00,32.8,29.9,29.65,North,0,0.0,0.0,89,0.00,,,0.16,WUHU216HW,2013-02-25 04:11:00,
2013-02-24 23:16:00,32.6,29.7,29.65,North,0,0.0,0.0,89,0.00,,,0.16,WUHU216HW,2013-02-25 04:16:00,
2013-02-24 23:21:00,32.6,29.7,29.65,North,0,0.0,0.0,89,0.00,,,0.16,WUHU216HW,2013-02-25 04:21:00,
2013-02-24 23:26:00,32.6,29.7,29.65,North,0,0.0,0.0,89,0.00,,,0.16,WUHU216HW,2013-02-25 04:26:00,
2013-02-24 23:31:00,32.6,29.7,29.66,North,0,0.0,0.0,89,0.00,,,0.16,WUHU216HW,2013-02-25 04:31:00,
2013-02-24 23:36:00,32.6,29.7,29.66,North,0,0.0,0.0,89,0.00,,,0.16,WUHU216HW,2013-02-25 04:36:00,
2013-02-24 23:41:00,32.6,29.7,29.66,North,0,0.0,0.0,89,0.00,,,0.16,WUHU216HW,2013-02-25 04:41:00,